Terminal Aerodrome Forecast
Issued by NWS Corpus Christi, TX

Home | Current Version | Previous Version | Text Only | Print | Product List | Glossary On
Versions: 1 2 3 4 5 6 7 8 9 10 11 12 13 14 15 16
000
FTUS44 KCRP 221739
TAFVCT
TAF
KVCT 221739Z 2218/2318 01006KT P6SM VCSH BKN015 OVC025
      TEMPO 2220/2224 5SM -TSRA BKN015CB OVC020
     FM230300 06006KT P6SM BKN025 OVC050 PROB30 2308/2312 5SM -TSRA
      OVC020CB
     FM231200 08005KT P6SM VCSH BKN025 OVC100 PROB30 2315/2318 5SM
      -TSRA OVC020CB=

USA.gov is the U.S. government's official web portal to all federal, state and local government web resources and services.